Time;durP1;ratioP1;P1;durP2;ratioP2;P2;SDS_P1;SDS_P2;PMS_P1;PMS_P2;Temp;Humidity;BMP_temperature;BMP_pressure;BME280_temperature;BME280_humidity;BME280_pressure;Samples;Min_cycle;Max_cycle;Signal;HPM_P1;HPM_P2
2022/06/07 00:00:03;;;;;;;;;;;17.90;99.90;;;;;;5071477;28;20427;-71
2022/06/07 00:02:30;;;;;;;;;;;18.00;99.90;;;;;;5071369;28;20367;-71
2022/06/07 00:04:56;;;;;;;;;;;17.90;99.90;;;;;;5071427;28;19943;-71
2022/06/07 00:07:22;;;;;;;;;;;17.90;99.90;;;;;;5071352;28;20357;-71
2022/06/07 00:09:48;;;;;;;;;;;17.90;99.90;;;;;;5071106;28;20356;-71
2022/06/07 00:12:13;;;;;;;;;;;17.90;99.90;;;;;;5071288;28;20003;-71
2022/06/07 00:14:39;;;;;;;;;;;17.80;99.90;;;;;;5071133;28;19969;-71
2022/06/07 00:17:05;;;;;;;;;;;17.90;99.90;;;;;;5071309;28;19923;-71
2022/06/07 00:19:34;;;;;;;;;;;17.80;99.90;;;;;;5071280;28;19930;-71
2022/06/07 00:21:59;;;;;;;;;;;17.80;99.90;;;;;;5071067;28;20429;-71
2022/06/07 00:24:25;;;;;;;;;;;17.70;99.90;;;;;;5070674;28;19928;-71
2022/06/07 00:26:52;;;;;;;;;;;17.70;99.90;;;;;;5069599;28;20291;-72
2022/06/07 00:29:18;;;;;;;;;;;17.60;99.90;;;;;;5070718;28;19977;-71
2022/06/07 00:31:44;;;;;;;;;;;17.70;99.90;;;;;;5071311;28;19940;-71
2022/06/07 00:34:10;;;;;;;;;;;17.50;99.90;;;;;;5070867;28;20018;-71
2022/06/07 00:36:35;;;;;;;;;;;17.60;99.90;;;;;;5072312;28;19913;-71
2022/06/07 00:39:01;;;;;;;;;;;17.70;99.90;;;;;;5074733;28;20392;-71
2022/06/07 00:41:26;;;;;;;;;;;17.60;99.90;;;;;;5075394;28;19999;-72
2022/06/07 00:44:10;;;;;;;;;;;17.60;99.90;;;;;;5074641;28;20003;-71
2022/06/07 00:46:36;;;;;;;;;;;17.60;99.90;;;;;;5074743;28;19913;-72
2022/06/07 00:49:02;;;;;;;;;;;17.70;99.90;;;;;;5073088;28;20299;-71
2022/06/07 00:51:27;;;;;;;;;;;17.60;99.90;;;;;;5075040;28;19927;-71
2022/06/07 00:53:53;;;;;;;;;;;17.60;99.90;;;;;;5074702;28;19913;-71
2022/06/07 00:56:18;;;;;;;;;;;17.60;99.90;;;;;;5074924;28;20007;-71
2022/06/07 00:58:44;;;;;;;;;;;17.50;99.90;;;;;;5074375;28;20348;-72
2022/06/07 01:01:09;;;;;;;;;;;17.60;99.90;;;;;;5074822;28;19913;-72
2022/06/07 01:03:35;;;;;;;;;;;17.60;99.90;;;;;;5074243;28;19919;-71
2022/06/07 01:10:43;;;;;;;;;;;17.60;99.90;;;;;;5074278;28;20007;-71
2022/06/07 01:11:30;;;;;;;;;;;17.50;99.90;;;;;;5075036;28;19981;-71
2022/06/07 01:13:56;;;;;;;;;;;17.50;99.90;;;;;;5074111;28;20368;-71
2022/06/07 01:16:22;;;;;;;;;;;17.50;99.90;;;;;;5074664;28;20272;-71
2022/06/07 01:18:47;;;;;;;;;;;17.50;99.90;;;;;;5073908;28;19919;-71
2022/06/07 01:21:16;;;;;;;;;;;17.60;99.90;;;;;;5074580;28;19966;-71
2022/06/07 01:23:42;;;;;;;;;;;17.40;99.90;;;;;;5072320;28;20349;-71
2022/06/07 01:26:08;;;;;;;;;;;17.40;99.90;;;;;;5072755;28;19939;-71
2022/06/07 01:28:34;;;;;;;;;;;17.30;99.90;;;;;;5073819;28;19920;-71
2022/06/07 01:30:59;;;;;;;;;;;17.30;99.90;;;;;;5074278;28;19920;-71
2022/06/07 01:33:25;;;;;;;;;;;17.30;99.90;;;;;;5072699;28;19931;-71
2022/06/07 01:36:03;;;;;;;;;;;17.30;99.90;;;;;;5073705;28;20015;-72
2022/06/07 01:38:33;;;;;;;;;;;17.20;99.90;;;;;;5073672;28;20295;-71
2022/06/07 01:43:43;;;;;;;;;;;17.20;99.90;;;;;;5073921;28;19942;-71
2022/06/07 01:46:08;;;;;;;;;;;17.20;99.90;;;;;;5074153;28;19917;-71
2022/06/07 01:48:34;;;;;;;;;;;17.10;99.90;;;;;;5072100;28;20389;-71
2022/06/07 01:51:04;;;;;;;;;;;17.00;99.90;;;;;;5073518;28;19923;-71
2022/06/07 01:53:30;;;;;;;;;;;17.10;99.90;;;;;;5073311;28;19914;-71
2022/06/07 01:56:06;;;;;;;;;;;17.00;99.90;;;;;;5073806;28;19920;-71
2022/06/07 01:58:31;;;;;;;;;;;17.00;99.90;;;;;;5073480;28;19917;-71
2022/06/07 02:00:57;;;;;;;;;;;17.10;99.90;;;;;;5073612;28;19985;-72
2022/06/07 02:03:23;;;;;;;;;;;17.00;99.90;;;;;;5073191;28;20402;-71
2022/06/07 02:05:59;;;;;;;;;;;17.00;99.90;;;;;;5071904;28;19916;-71
2022/06/07 02:08:25;;;;;;;;;;;17.00;99.90;;;;;;5072934;28;19909;-72
2022/06/07 02:10:50;;;;;;;;;;;17.00;99.90;;;;;;5073485;28;19928;-71
2022/06/07 02:13:16;;;;;;;;;;;17.00;99.90;;;;;;5073615;28;19909;-71
2022/06/07 02:15:42;;;;;;;;;;;17.00;99.90;;;;;;5073389;28;19920;-71
2022/06/07 02:18:07;;;;;;;;;;;16.90;99.90;;;;;;5072831;28;19917;-71
2022/06/07 02:20:33;;;;;;;;;;;17.00;99.90;;;;;;5073230;28;20039;-72
2022/06/07 02:22:58;;;;;;;;;;;17.10;99.90;;;;;;5072766;28;19908;-72
2022/06/07 02:25:24;;;;;;;;;;;17.00;99.90;;;;;;5072752;28;19931;-72
2022/06/07 02:27:50;;;;;;;;;;;17.10;99.90;;;;;;5072653;28;19955;-72
2022/06/07 02:30:16;;;;;;;;;;;17.00;99.90;;;;;;5072797;28;20026;-72
2022/06/07 02:32:42;;;;;;;;;;;17.00;99.90;;;;;;5072801;28;19958;-72
2022/06/07 02:35:07;;;;;;;;;;;16.90;99.90;;;;;;5072595;28;20308;-71
2022/06/07 02:37:34;;;;;;;;;;;16.90;99.90;;;;;;5073197;28;19955;-71
2022/06/07 02:40:00;;;;;;;;;;;16.90;99.90;;;;;;5072457;28;19916;-71
2022/06/07 02:42:27;;;;;;;;;;;16.80;99.90;;;;;;5072570;28;20265;-72
2022/06/07 02:44:52;;;;;;;;;;;16.90;99.90;;;;;;5072727;28;19916;-72
2022/06/07 02:47:18;;;;;;;;;;;16.80;99.90;;;;;;5072486;28;20011;-72
2022/06/07 02:49:43;;;;;;;;;;;16.90;99.90;;;;;;5072037;28;19920;-72
2022/06/07 02:52:09;;;;;;;;;;;17.00;99.90;;;;;;5071009;28;19912;-72
2022/06/07 02:54:35;;;;;;;;;;;17.10;99.90;;;;;;5072137;28;19997;-72
2022/06/07 02:57:00;;;;;;;;;;;17.10;99.90;;;;;;5072310;28;20317;-72
2022/06/07 02:59:26;;;;;;;;;;;17.10;99.90;;;;;;5071579;28;20006;-71
2022/06/07 03:01:51;;;;;;;;;;;17.10;99.90;;;;;;5072130;28;19913;-71
2022/06/07 03:04:17;;;;;;;;;;;17.20;99.90;;;;;;5070456;28;20272;-71
2022/06/07 03:06:42;;;;;;;;;;;17.20;99.90;;;;;;5072032;28;19998;-71
2022/06/07 03:09:08;;;;;;;;;;;17.30;99.90;;;;;;5071692;28;19920;-71
2022/06/07 03:11:33;;;;;;;;;;;17.40;99.90;;;;;;5071809;28;19916;-71
2022/06/07 03:13:59;;;;;;;;;;;17.40;99.90;;;;;;5071783;28;19908;-71
2022/06/07 03:16:24;;;;;;;;;;;17.50;99.90;;;;;;5070743;28;20034;-71
2022/06/07 03:18:50;;;;;;;;;;;17.50;99.90;;;;;;5070309;28;19909;-71
2022/06/07 03:21:15;;;;;;;;;;;17.60;99.90;;;;;;5070596;28;19923;-72
2022/06/07 03:23:41;;;;;;;;;;;17.60;99.90;;;;;;5071349;28;20319;-71
2022/06/07 03:26:08;;;;;;;;;;;17.70;99.90;;;;;;5070524;28;19920;-71
2022/06/07 03:28:34;;;;;;;;;;;17.70;99.90;;;;;;5071453;28;20261;-71
2022/06/07 03:31:04;;;;;;;;;;;17.80;99.90;;;;;;5071988;28;20007;-71
2022/06/07 03:33:30;;;;;;;;;;;17.80;99.90;;;;;;5071465;28;20341;-71
2022/06/07 03:36:02;;;;;;;;;;;17.90;99.90;;;;;;5071896;28;19923;-71
2022/06/07 03:38:27;;;;;;;;;;;18.00;99.90;;;;;;5071509;28;19970;-71
2022/06/07 03:40:53;;;;;;;;;;;18.10;99.90;;;;;;5071747;28;19917;-72
2022/06/07 03:43:18;;;;;;;;;;;18.20;99.90;;;;;;5071381;28;19924;-71
2022/06/07 03:45:44;;;;;;;;;;;18.30;99.90;;;;;;5071773;28;19913;-72
2022/06/07 03:48:09;;;;;;;;;;;18.30;99.90;;;;;;5071296;28;20372;-71
2022/06/07 03:50:35;;;;;;;;;;;18.40;99.90;;;;;;5071534;28;20371;-71
2022/06/07 03:53:01;;;;;;;;;;;18.50;99.90;;;;;;5071167;28;19912;-72
2022/06/07 03:55:26;;;;;;;;;;;18.60;99.90;;;;;;5071545;28;19920;-71
2022/06/07 03:57:52;;;;;;;;;;;18.70;99.90;;;;;;5071184;28;19913;-71
2022/06/07 04:00:17;;;;;;;;;;;18.70;99.90;;;;;;5071404;28;20011;-71
2022/06/07 04:02:43;;;;;;;;;;;18.80;99.90;;;;;;5071269;28;20264;-71
2022/06/07 04:05:08;;;;;;;;;;;18.90;99.90;;;;;;5071289;28;19963;-71
2022/06/07 04:10:18;;;;;;;;;;;19.10;99.90;;;;;;5071615;28;20450;-71
2022/06/07 04:12:43;;;;;;;;;;;19.20;99.90;;;;;;5075369;28;19951;-71
2022/06/07 04:15:09;;;;;;;;;;;19.20;99.90;;;;;;5075517;28;19918;-71
2022/06/07 04:17:35;;;;;;;;;;;19.30;99.90;;;;;;5075410;28;20280;-71
2022/06/07 04:20:00;;;;;;;;;;;19.40;99.90;;;;;;5073817;28;19916;-71
2022/06/07 04:22:26;;;;;;;;;;;19.50;99.90;;;;;;5075498;28;20324;-71
2022/06/07 04:24:51;;;;;;;;;;;19.50;99.90;;;;;;5074986;28;19936;-71
2022/06/07 04:27:17;;;;;;;;;;;19.60;99.90;;;;;;5075134;28;19934;-71
2022/06/07 04:29:42;;;;;;;;;;;19.60;99.90;;;;;;5074934;28;19927;-72
2022/06/07 04:32:08;;;;;;;;;;;19.70;99.90;;;;;;5075030;28;19916;-73
2022/06/07 04:34:33;;;;;;;;;;;19.80;99.90;;;;;;5074838;28;20073;-72
2022/06/07 04:36:59;;;;;;;;;;;19.80;99.90;;;;;;5074998;28;19931;-71
2022/06/07 04:39:24;;;;;;;;;;;19.80;99.90;;;;;;5074646;28;19908;-71
2022/06/07 04:41:49;;;;;;;;;;;19.90;99.90;;;;;;5074945;28;19908;-71
2022/06/07 04:44:15;;;;;;;;;;;20.00;99.90;;;;;;5074589;28;20364;-71
2022/06/07 04:46:41;;;;;;;;;;;20.10;99.90;;;;;;5073409;28;19908;-71
2022/06/07 04:49:07;;;;;;;;;;;20.20;99.90;;;;;;5074484;28;19913;-71
2022/06/07 04:51:34;;;;;;;;;;;20.20;99.90;;;;;;5075160;28;19927;-72
2022/06/07 04:54:00;;;;;;;;;;;20.30;99.90;;;;;;5074500;28;19908;-71
2022/06/07 04:56:28;;;;;;;;;;;20.30;99.90;;;;;;5075046;28;19939;-72
2022/06/07 04:58:53;;;;;;;;;;;20.40;99.90;;;;;;5072846;28;19958;-71
2022/06/07 05:01:23;;;;;;;;;;;20.50;99.90;;;;;;5072898;28;19956;-71
2022/06/07 05:03:49;;;;;;;;;;;20.50;99.90;;;;;;5074175;28;19999;-71
2022/06/07 05:06:35;;;;;;;;;;;20.70;99.90;;;;;;5074950;28;20359;-72
2022/06/07 05:09:02;;;;;;;;;;;20.80;99.90;;;;;;5073587;28;19916;-72
2022/06/07 05:11:28;;;;;;;;;;;20.90;99.90;;;;;;5074745;28;20357;-71
2022/06/07 05:13:57;;;;;;;;;;;21.00;99.90;;;;;;5072634;28;19909;-71
2022/06/07 05:16:23;;;;;;;;;;;21.10;99.90;;;;;;5074651;28;19917;-71
2022/06/07 05:18:50;;;;;;;;;;;21.10;99.90;;;;;;5073855;28;19912;-71
2022/06/07 05:21:16;;;;;;;;;;;21.20;99.90;;;;;;5074154;28;19965;-71
2022/06/07 05:23:42;;;;;;;;;;;21.20;99.90;;;;;;5073680;28;20322;-71
2022/06/07 05:26:10;;;;;;;;;;;21.20;99.10;;;;;;5072656;28;19917;-70
2022/06/07 05:28:36;;;;;;;;;;;21.20;99.90;;;;;;5073672;28;19912;-71
2022/06/07 05:31:02;;;;;;;;;;;21.30;99.90;;;;;;5074494;28;19916;-71
2022/06/07 05:33:27;;;;;;;;;;;21.40;99.90;;;;;;5074027;28;19912;-71
2022/06/07 05:35:53;;;;;;;;;;;21.40;99.90;;;;;;5074073;28;19924;-71
2022/06/07 05:38:18;;;;;;;;;;;21.50;99.90;;;;;;5072370;28;19909;-71
2022/06/07 05:40:44;;;;;;;;;;;21.50;99.90;;;;;;5074128;28;19959;-71
2022/06/07 05:43:12;;;;;;;;;;;21.60;99.90;;;;;;5073581;28;20372;-71
2022/06/07 05:45:38;;;;;;;;;;;21.70;99.90;;;;;;5073879;28;19946;-72
2022/06/07 05:48:04;;;;;;;;;;;21.80;99.90;;;;;;5073509;28;19944;-71
2022/06/07 05:50:30;;;;;;;;;;;21.90;99.90;;;;;;5072012;28;19959;-71
2022/06/07 05:52:55;;;;;;;;;;;22.10;99.90;;;;;;5073688;28;19908;-70
2022/06/07 05:55:21;;;;;;;;;;;22.20;99.90;;;;;;5072237;28;19920;-70
2022/06/07 05:57:50;;;;;;;;;;;22.10;99.90;;;;;;5073737;28;19951;-70
2022/06/07 06:00:17;;;;;;;;;;;22.20;99.90;;;;;;5073484;28;19959;-70
2022/06/07 06:02:43;;;;;;;;;;;22.30;99.90;;;;;;5073234;28;19973;-70
2022/06/07 06:05:09;;;;;;;;;;;22.30;99.50;;;;;;5073303;28;19916;-70
2022/06/07 06:07:35;;;;;;;;;;;22.40;98.90;;;;;;5073365;28;20338;-70
2022/06/07 06:12:45;;;;;;;;;;;22.40;98.10;;;;;;5073035;28;20284;-71
2022/06/07 06:15:10;;;;;;;;;;;22.50;98.20;;;;;;5071725;28;19916;-70
2022/06/07 06:17:36;;;;;;;;;;;22.50;97.70;;;;;;5073081;28;19916;-71
2022/06/07 06:20:01;;;;;;;;;;;22.50;98.10;;;;;;5072856;28;19916;-71
2022/06/07 06:22:27;;;;;;;;;;;22.50;97.60;;;;;;5073024;28;19962;-72
2022/06/07 06:24:53;;;;;;;;;;;22.70;97.00;;;;;;5072541;28;19966;-71
2022/06/07 06:27:18;;;;;;;;;;;22.70;97.70;;;;;;5072967;28;20364;-72
2022/06/07 06:29:44;;;;;;;;;;;22.80;97.40;;;;;;5072545;28;20375;-71
2022/06/07 06:32:09;;;;;;;;;;;23.00;96.70;;;;;;5072915;28;19908;-71
2022/06/07 06:34:35;;;;;;;;;;;23.10;96.70;;;;;;5071843;28;19943;-71
2022/06/07 06:37:00;;;;;;;;;;;23.20;96.30;;;;;;5072755;28;19914;-71
2022/06/07 06:39:27;;;;;;;;;;;23.20;95.50;;;;;;5072711;28;19909;-71
2022/06/07 06:41:52;;;;;;;;;;;23.30;96.10;;;;;;5072740;28;19919;-69
2022/06/07 06:44:18;;;;;;;;;;;23.40;96.30;;;;;;5072608;28;19916;-69
2022/06/07 06:46:45;;;;;;;;;;;23.60;96.10;;;;;;5071384;28;19962;-70
2022/06/07 06:49:13;;;;;;;;;;;23.70;93.70;;;;;;5072523;28;19913;-69
2022/06/07 06:51:39;;;;;;;;;;;23.60;93.40;;;;;;5072208;28;19962;-70
2022/06/07 06:54:05;;;;;;;;;;;23.60;94.30;;;;;;5072706;28;19912;-69
2022/06/07 06:56:31;;;;;;;;;;;23.50;94.80;;;;;;5072748;28;19920;-70
2022/06/07 06:58:57;;;;;;;;;;;23.60;95.30;;;;;;5072286;28;19913;-70
2022/06/07 07:01:28;;;;;;;;;;;23.70;94.70;;;;;;5072528;28;19966;-70
2022/06/07 07:03:54;;;;;;;;;;;23.80;93.90;;;;;;5071709;28;20007;-70
2022/06/07 07:06:20;;;;;;;;;;;23.90;94.20;;;;;;5072296;28;19951;-70
2022/06/07 07:08:47;;;;;;;;;;;24.00;93.60;;;;;;5071633;28;19908;-71
2022/06/07 07:11:15;;;;;;;;;;;24.10;93.10;;;;;;5072254;28;19916;-71
2022/06/07 07:13:41;;;;;;;;;;;24.20;92.50;;;;;;5071661;28;20256;-72
2022/06/07 07:16:08;;;;;;;;;;;24.20;92.90;;;;;;5072289;28;19916;-70
2022/06/07 07:18:33;;;;;;;;;;;24.20;92.50;;;;;;5071588;28;19917;-70
2022/06/07 07:21:02;;;;;;;;;;;24.30;91.90;;;;;;5071685;28;19920;-70
2022/06/07 07:23:27;;;;;;;;;;;24.30;91.40;;;;;;5069988;28;20291;-71
2022/06/07 07:25:59;;;;;;;;;;;23.70;91.10;;;;;;5072061;28;20011;-71
2022/06/07 07:28:25;;;;;;;;;;;24.20;90.90;;;;;;5071664;28;19953;-71
2022/06/07 07:30:56;;;;;;;;;;;24.10;90.80;;;;;;5070264;28;20376;-71
2022/06/07 07:33:22;;;;;;;;;;;24.10;90.90;;;;;;5071527;28;19916;-71
2022/06/07 07:35:47;;;;;;;;;;;24.30;90.20;;;;;;5071783;28;20364;-71
2022/06/07 07:38:13;;;;;;;;;;;23.90;89.90;;;;;;5070084;28;19915;-70
2022/06/07 07:40:39;;;;;;;;;;;24.60;89.50;;;;;;5071710;28;20497;-71
2022/06/07 07:43:05;;;;;;;;;;;24.70;89.70;;;;;;5071496;28;19912;-70
2022/06/07 07:45:30;;;;;;;;;;;24.90;88.20;;;;;;5071738;28;20387;-69
2022/06/07 07:47:56;;;;;;;;;;;25.10;87.40;;;;;;5071269;28;20379;-71
2022/06/07 07:50:22;;;;;;;;;;;25.20;86.50;;;;;;5071436;28;20581;-70
2022/06/07 07:52:48;;;;;;;;;;;25.40;86.10;;;;;;5071257;28;19913;-71
2022/06/07 07:55:13;;;;;;;;;;;25.50;85.60;;;;;;5069941;28;19970;-71
2022/06/07 07:57:39;;;;;;;;;;;25.60;84.30;;;;;;5071296;28;19908;-70
2022/06/07 08:00:05;;;;;;;;;;;25.80;83.00;;;;;;5071198;28;19920;-70
2022/06/07 08:02:31;;;;;;;;;;;25.80;83.20;;;;;;5071188;28;19913;-71
2022/06/07 08:04:56;;;;;;;;;;;25.80;83.10;;;;;;5070969;28;19923;-71
2022/06/07 08:07:22;;;;;;;;;;;25.80;83.50;;;;;;5071275;28;19961;-71
2022/06/07 08:09:47;;;;;;;;;;;25.90;84.00;;;;;;5070914;28;20391;-71
2022/06/07 08:12:13;;;;;;;;;;;26.20;82.90;;;;;;5071288;28;20018;-71
2022/06/07 08:14:38;;;;;;;;;;;26.30;83.70;;;;;;5070930;28;19928;-71
2022/06/07 08:17:04;;;;;;;;;;;26.50;82.10;;;;;;5071224;28;20322;-70
2022/06/07 08:19:30;;;;;;;;;;;26.80;81.60;;;;;;5071016;28;19909;-71
2022/06/07 08:21:56;;;;;;;;;;;27.10;80.70;;;;;;5071151;28;19915;-72
2022/06/07 08:24:21;;;;;;;;;;;27.00;80.30;;;;;;5070808;28;19920;-71
2022/06/07 08:26:48;;;;;;;;;;;27.00;78.30;;;;;;5070917;28;20360;-71
2022/06/07 08:29:15;;;;;;;;;;;27.10;79.20;;;;;;5070714;28;19919;-73
2022/06/07 08:31:40;;;;;;;;;;;27.30;78.70;;;;;;5071215;28;19995;-72
2022/06/07 08:39:35;;;;;;;;;;;27.70;73.80;;;;;;5071165;28;20120;-70
2022/06/07 08:42:03;;;;;;;;;;;27.50;73.90;;;;;;5070915;28;20441;-71
2022/06/07 08:44:47;;;;;;;;;;;27.50;73.40;;;;;;5070599;28;19919;-71
2022/06/07 08:47:13;;;;;;;;;;;27.20;74.40;;;;;;5069617;28;20340;-71
2022/06/07 08:49:38;;;;;;;;;;;26.90;75.60;;;;;;5070619;28;19952;-71
2022/06/07 08:52:04;;;;;;;;;;;27.10;75.70;;;;;;5070946;28;19923;-71
2022/06/07 08:54:32;;;;;;;;;;;27.50;77.50;;;;;;5069202;28;19915;-72
2022/06/07 08:57:00;;;;;;;;;;;27.80;75.10;;;;;;5071990;28;19916;-72
2022/06/07 08:59:26;;;;;;;;;;;28.10;74.60;;;;;;5073194;28;20015;-72
2022/06/07 09:02:00;;;;;;;;;;;28.40;74.00;;;;;;5074620;28;19960;-71
2022/06/07 09:04:30;;;;;;;;;;;28.20;72.40;;;;;;5074166;28;20365;-70
2022/06/07 09:06:57;;;;;;;;;;;28.10;71.80;;;;;;5074286;28;20295;-69
2022/06/07 09:12:09;;;;;;;;;;;28.10;72.20;;;;;;5072725;28;20020;-70
2022/06/07 09:12:14;;;;;;;;;;;28.10;72.70;;;;;;5074343;28;20015;-70
2022/06/07 09:14:48;;;;;;;;;;;28.30;73.20;;;;;;5073951;28;19916;-70
2022/06/07 09:17:27;;;;;;;;;;;28.50;72.20;;;;;;5074630;28;19955;-71
2022/06/07 09:19:54;;;;;;;;;;;28.60;71.30;;;;;;5073995;28;19962;-71
2022/06/07 09:22:25;;;;;;;;;;;28.50;71.60;;;;;;5074054;28;19913;-70
2022/06/07 09:24:51;;;;;;;;;;;28.50;71.40;;;;;;5072422;28;19947;-71
2022/06/07 09:27:17;;;;;;;;;;;28.60;71.90;;;;;;5072609;28;19912;-71
2022/06/07 09:29:49;;;;;;;;;;;28.50;70.40;;;;;;5073676;28;19927;-72
2022/06/07 09:32:16;;;;;;;;;;;28.50;70.30;;;;;;5074184;28;20333;-71
2022/06/07 09:34:50;;;;;;;;;;;28.60;72.20;;;;;;5073662;28;19923;-72
2022/06/07 09:37:19;;;;;;;;;;;28.70;71.20;;;;;;5073935;28;19915;-70
2022/06/07 09:39:45;;;;;;;;;;;28.90;70.80;;;;;;5073778;28;20272;-70
2022/06/07 09:42:19;;;;;;;;;;;28.90;70.20;;;;;;5073780;28;19962;-69
2022/06/07 09:45:11;;;;;;;;;;;28.80;70.60;;;;;;5073663;28;19920;-69
2022/06/07 09:47:37;;;;;;;;;;;28.80;69.70;;;;;;5071675;28;19909;-70
2022/06/07 09:50:06;;;;;;;;;;;28.70;69.70;;;;;;5073687;28;19990;-70
2022/06/07 09:52:40;;;;;;;;;;;28.90;69.10;;;;;;5073695;28;19957;-70
2022/06/07 09:55:13;;;;;;;;;;;29.20;70.00;;;;;;5073457;28;19916;-70
2022/06/07 09:57:54;;;;;;;;;;;29.40;69.00;;;;;;5072333;28;19912;-71
2022/06/07 10:00:26;;;;;;;;;;;29.70;68.30;;;;;;5073532;28;19920;-71
2022/06/07 10:03:11;;;;;;;;;;;29.60;67.20;;;;;;5073703;28;19918;-71
2022/06/07 10:05:39;;;;;;;;;;;29.80;67.70;;;;;;5073572;28;19967;-71
2022/06/07 10:08:05;;;;;;;;;;;30.00;69.00;;;;;;5070881;28;19946;-69
2022/06/07 10:10:47;;;;;;;;;;;30.50;67.10;;;;;;5073176;28;20346;-71
2022/06/07 10:13:32;;;;;;;;;;;30.70;66.00;;;;;;5072977;28;19970;-70
2022/06/07 10:16:12;;;;;;;;;;;30.60;64.90;;;;;;5071680;28;19917;-70
2022/06/07 10:18:56;;;;;;;;;;;30.30;65.50;;;;;;5073228;28;20375;-71
2022/06/07 10:21:32;;;;;;;;;;;30.50;66.30;;;;;;5073425;28;19916;-71
2022/06/07 10:24:12;;;;;;;;;;;30.80;65.80;;;;;;5072995;28;19991;-70
2022/06/07 10:26:58;;;;;;;;;;;31.10;64.60;;;;;;5072993;28;19920;-70
2022/06/07 10:29:34;;;;;;;;;;;31.20;63.20;;;;;;5072350;28;19912;-69
2022/06/07 10:32:12;;;;;;;;;;;31.40;61.80;;;;;;5072901;28;19908;-70
2022/06/07 10:34:46;;;;;;;;;;;31.20;62.40;;;;;;5072509;28;20413;-70
2022/06/07 10:37:17;;;;;;;;;;;31.10;62.30;;;;;;5072168;28;20135;-71
2022/06/07 10:39:50;;;;;;;;;;;31.00;61.80;;;;;;5072258;28;20205;-71
2022/06/07 10:42:25;;;;;;;;;;;30.40;62.40;;;;;;5072422;28;19913;-72
2022/06/07 10:44:50;;;;;;;;;;;29.50;63.40;;;;;;5072009;28;19913;-71
2022/06/07 10:47:33;;;;;;;;;;;29.00;64.50;;;;;;5072088;28;20292;-71
2022/06/07 10:50:18;;;;;;;;;;;28.60;65.10;;;;;;5072036;28;20292;-71
2022/06/07 10:52:48;;;;;;;;;;;28.10;65.30;;;;;;5072432;28;19913;-72
2022/06/07 10:55:17;;;;;;;;;;;27.70;66.00;;;;;;5072396;28;20369;-72
2022/06/07 10:58:04;;;;;;;;;;;27.50;66.70;;;;;;5072203;28;19917;-71
2022/06/07 11:00:33;;;;;;;;;;;27.20;67.00;;;;;;5070678;28;19913;-71
2022/06/07 11:03:05;;;;;;;;;;;27.30;66.90;;;;;;5070485;28;19916;-71
2022/06/07 11:11:22;;;;;;;;;;;28.40;65.60;;;;;;5071966;28;20015;-71
2022/06/07 11:13:50;;;;;;;;;;;28.90;65.20;;;;;;5070680;28;19912;-71
2022/06/07 11:16:16;;;;;;;;;;;28.80;64.30;;;;;;5072196;28;20347;-72
2022/06/07 11:18:42;;;;;;;;;;;28.50;64.70;;;;;;5071907;28;19960;-72
2022/06/07 11:21:08;;;;;;;;;;;28.20;65.40;;;;;;5069915;28;20322;-70
2022/06/07 11:23:36;;;;;;;;;;;28.00;65.60;;;;;;5071542;28;19917;-71
2022/06/07 11:26:08;;;;;;;;;;;28.00;64.30;;;;;;5071931;28;20018;-70
2022/06/07 11:28:42;;;;;;;;;;;28.20;64.00;;;;;;5071602;28;19929;-71
2022/06/07 11:31:27;;;;;;;;;;;28.50;65.10;;;;;;5071934;28;19919;-70
2022/06/07 11:33:52;;;;;;;;;;;29.00;63.20;;;;;;5071366;28;19920;-71
2022/06/07 11:36:25;;;;;;;;;;;29.40;62.00;;;;;;5071766;28;19912;-70
2022/06/07 11:38:57;;;;;;;;;;;29.10;61.80;;;;;;5071414;28;19923;-71
2022/06/07 11:41:37;;;;;;;;;;;29.10;62.90;;;;;;5071943;28;20244;-71
2022/06/07 11:44:12;;;;;;;;;;;29.30;62.30;;;;;;5070176;28;19916;-70
2022/06/07 11:46:46;;;;;;;;;;;29.40;61.80;;;;;;5069926;28;19924;-70
2022/06/07 11:49:18;;;;;;;;;;;29.50;62.30;;;;;;5071365;28;19921;-71
2022/06/07 11:51:55;;;;;;;;;;;29.70;62.30;;;;;;5071261;28;20360;-70
2022/06/07 11:54:26;;;;;;;;;;;29.70;62.50;;;;;;5071195;28;19915;-71
2022/06/07 11:56:53;;;;;;;;;;;29.40;61.90;;;;;;5071410;28;19927;-71
2022/06/07 11:59:18;;;;;;;;;;;29.40;62.00;;;;;;5071252;28;19913;-70
2022/06/07 12:01:47;;;;;;;;;;;29.50;61.70;;;;;;5069881;28;20370;-70
2022/06/07 12:04:33;;;;;;;;;;;29.50;61.00;;;;;;5071226;28;20276;-70
2022/06/07 12:07:27;;;;;;;;;;;29.60;61.60;;;;;;5071312;28;19982;-72
2022/06/07 12:09:54;;;;;;;;;;;30.00;61.60;;;;;;5068961;28;19917;-70
2022/06/07 12:12:22;;;;;;;;;;;29.70;60.80;;;;;;5071225;28;19982;-71
2022/06/07 12:14:50;;;;;;;;;;;29.50;61.50;;;;;;5071024;28;19962;-71
2022/06/07 12:17:24;;;;;;;;;;;29.20;61.60;;;;;;5069755;28;19916;-71
2022/06/07 12:19:50;;;;;;;;;;;29.00;61.70;;;;;;5070998;28;19908;-71
2022/06/07 12:22:17;;;;;;;;;;;29.00;62.20;;;;;;5071044;28;20265;-72
2022/06/07 12:24:49;;;;;;;;;;;29.00;61.80;;;;;;5070857;28;19964;-71
2022/06/07 12:27:27;;;;;;;;;;;28.90;62.40;;;;;;5071158;28;19916;-71
2022/06/07 12:29:54;;;;;;;;;;;28.30;62.70;;;;;;5070859;28;19923;-71
2022/06/07 12:32:24;;;;;;;;;;;27.90;63.20;;;;;;5072999;28;19912;-71
2022/06/07 12:35:02;;;;;;;;;;;27.70;63.20;;;;;;5074642;28;19916;-72
2022/06/07 12:37:28;;;;;;;;;;;27.70;62.50;;;;;;5073589;28;19923;-72
2022/06/07 12:39:56;;;;;;;;;;;27.80;60.80;;;;;;5074649;28;20284;-71
2022/06/07 12:42:22;;;;;;;;;;;27.70;61.50;;;;;;5074868;28;20295;-71
2022/06/07 12:44:53;;;;;;;;;;;27.50;61.30;;;;;;5074922;28;19912;-71
2022/06/07 12:47:31;;;;;;;;;;;27.20;61.80;;;;;;5074719;28;19991;-71
2022/06/07 12:49:56;;;;;;;;;;;27.10;62.50;;;;;;5074542;28;20367;-72
2022/06/07 12:52:25;;;;;;;;;;;27.10;62.00;;;;;;5074108;28;19958;-71
2022/06/07 12:54:53;;;;;;;;;;;26.90;62.50;;;;;;5074513;28;20368;-72
2022/06/07 12:57:26;;;;;;;;;;;26.90;63.90;;;;;;5074347;28;19916;-71
2022/06/07 12:59:54;;;;;;;;;;;27.00;64.00;;;;;;5074453;28;20360;-71
2022/06/07 13:02:25;;;;;;;;;;;27.10;63.70;;;;;;5074450;28;20277;-71
2022/06/07 13:04:52;;;;;;;;;;;27.20;63.40;;;;;;5074281;28;19912;-72
2022/06/07 13:07:26;;;;;;;;;;;27.30;63.90;;;;;;5074595;28;19991;-71
2022/06/07 13:09:57;;;;;;;;;;;27.30;63.50;;;;;;5082244;28;20413;-68
2022/06/07 13:12:25;;;;;;;;;;;27.30;63.60;;;;;;5084113;28;20253;-68
2022/06/07 13:14:52;;;;;;;;;;;27.10;63.50;;;;;;5081665;28;20026;-67
2022/06/07 13:17:32;;;;;;;;;;;27.10;64.60;;;;;;5084131;28;19912;-67
2022/06/07 13:19:58;;;;;;;;;;;27.10;64.80;;;;;;5078904;28;19913;-67
2022/06/07 13:22:24;;;;;;;;;;;27.10;64.80;;;;;;5091892;28;19919;-67
2022/06/07 13:24:54;;;;;;;;;;;26.90;64.30;;;;;;5089471;28;19920;-67
2022/06/07 13:27:36;;;;;;;;;;;26.80;65.10;;;;;;5078212;28;19920;-67
2022/06/07 13:30:03;;;;;;;;;;;26.90;65.30;;;;;;5086055;28;19992;-68
2022/06/07 13:32:28;;;;;;;;;;;26.90;65.30;;;;;;5083354;28;20633;-68
2022/06/07 13:35:02;;;;;;;;;;;26.90;65.90;;;;;;5094642;28;20010;-68
2022/06/07 13:37:29;;;;;;;;;;;26.90;65.40;;;;;;5082625;28;19924;-68
2022/06/07 13:40:01;;;;;;;;;;;26.80;64.90;;;;;;5086067;28;20268;-68
2022/06/07 13:42:28;;;;;;;;;;;26.80;65.20;;;;;;5082200;28;19940;-68
2022/06/07 13:45:00;;;;;;;;;;;26.60;65.50;;;;;;5087811;28;20360;-68
2022/06/07 13:47:35;;;;;;;;;;;26.40;65.80;;;;;;5084854;28;19916;-68
2022/06/07 13:55:50;;;;;;;;;;;26.00;66.10;;;;;;5094222;28;19970;-67
2022/06/07 13:58:20;;;;;;;;;;;26.00;66.50;;;;;;5080374;28;19919;-67
2022/06/07 14:00:46;;;;;;;;;;;26.00;66.00;;;;;;5111435;28;19912;-67
2022/06/07 14:03:16;;;;;;;;;;;25.90;66.80;;;;;;5106054;28;19922;-68
2022/06/07 14:05:42;;;;;;;;;;;26.00;66.90;;;;;;5094369;28;19955;-68
2022/06/07 14:08:12;;;;;;;;;;;26.00;66.50;;;;;;5095583;28;20419;-68
2022/06/07 14:10:37;;;;;;;;;;;26.10;66.70;;;;;;5104840;28;19970;-68
2022/06/07 14:13:03;;;;;;;;;;;26.20;66.90;;;;;;5080250;28;19947;-68
2022/06/07 14:15:30;;;;;;;;;;;26.10;66.90;;;;;;5084060;28;19999;-67
2022/06/07 14:17:55;;;;;;;;;;;26.10;67.80;;;;;;5078097;28;19930;-67
2022/06/07 14:20:22;;;;;;;;;;;26.10;68.00;;;;;;5075981;28;19921;-68
2022/06/07 14:22:53;;;;;;;;;;;26.00;66.80;;;;;;5082025;28;19970;-67
2022/06/07 14:25:23;;;;;;;;;;;25.90;67.80;;;;;;5086778;28;19924;-67
2022/06/07 14:27:49;;;;;;;;;;;25.90;68.60;;;;;;5074161;28;19959;-68
2022/06/07 14:30:14;;;;;;;;;;;26.00;68.50;;;;;;5090145;28;19967;-67
2022/06/07 14:32:43;;;;;;;;;;;26.00;67.70;;;;;;5081638;28;20032;-68
2022/06/07 14:35:16;;;;;;;;;;;25.90;67.50;;;;;;5078954;28;20016;-68
2022/06/07 14:37:41;;;;;;;;;;;26.00;67.90;;;;;;5075722;28;20015;-68
2022/06/07 14:40:17;;;;;;;;;;;26.00;67.80;;;;;;5073645;28;20083;-68
2022/06/07 14:42:43;;;;;;;;;;;26.00;67.60;;;;;;5078784;28;20358;-68
2022/06/07 14:45:12;;;;;;;;;;;26.00;67.50;;;;;;5080856;28;20016;-68
2022/06/07 14:47:38;;;;;;;;;;;26.00;67.10;;;;;;5083346;28;19916;-68
2022/06/07 14:50:03;;;;;;;;;;;26.00;67.00;;;;;;5080662;28;19916;-67